sensor_id;sensor_type;location;lat;lon;timestamp;P1;P2;P0
72031;PMS5003;49185;42.320;23.198;2022-12-18T09:25:48;27.50;24.75;15.75
72031;PMS5003;49185;42.320;23.198;2022-12-18T09:28:15;45.00;34.33;18.33
72031;PMS5003;49185;42.320;23.198;2022-12-18T09:30:43;44.50;35.50;20.00
72031;PMS5003;49185;42.320;23.198;2022-12-18T09:33:11;35.50;30.00;18.00
72031;PMS5003;49185;42.320;23.198;2022-12-18T09:35:37;31.33;28.33;17.00
72031;PMS5003;49185;42.320;23.198;2022-12-18T09:38:02;37.50;30.00;17.75
72031;PMS5003;49185;42.320;23.198;2022-12-18T09:40:28;40.67;33.67;20.00
72031;PMS5003;49185;42.320;23.198;2022-12-18T09:43:00;38.75;32.75;20.00
72031;PMS5003;49185;42.320;23.198;2022-12-18T09:45:30;39.75;33.25;20.25
72031;PMS5003;49185;42.320;23.198;2022-12-18T09:48:05;35.50;30.25;19.00
72031;PMS5003;49185;42.320;23.198;2022-12-18T09:50:42;30.00;25.25;16.00
72031;PMS5003;49185;42.320;23.198;2022-12-18T09:53:14;34.00;27.25;17.00
72031;PMS5003;49185;42.320;23.198;2022-12-18T09:55:45;32.50;27.00;17.00
72031;PMS5003;49185;42.320;23.198;2022-12-18T10:01:00;28.00;26.00;17.00
72031;PMS5003;49185;42.320;23.198;2022-12-18T10:03:26;26.75;26.00;16.00
72031;PMS5003;49185;42.320;23.198;2022-12-18T10:06:13;26.75;24.25;14.50
72031;PMS5003;49185;42.320;23.198;2022-12-18T10:14:25;27.00;22.00;13.00
72031;PMS5003;49185;42.320;23.198;2022-12-18T10:19:57;25.50;23.00;11.00
72031;PMS5003;49185;42.320;23.198;2022-12-18T10:25:28;27.50;25.25;14.25
72031;PMS5003;49185;42.320;23.198;2022-12-18T10:28:09;25.00;24.00;15.00
72031;PMS5003;49185;42.320;23.198;2022-12-18T10:30:38;27.25;22.00;14.50
72031;PMS5003;49185;42.320;23.198;2022-12-18T10:33:15;24.50;22.00;14.00
72031;PMS5003;49185;42.320;23.198;2022-12-18T10:35:43;25.00;23.50;14.75
72031;PMS5003;49185;42.320;23.198;2022-12-18T10:38:28;28.75;25.75;15.00
72031;PMS5003;49185;42.320;23.198;2022-12-18T10:40:56;29.50;27.25;15.00
72031;PMS5003;49185;42.320;23.198;2022-12-18T10:43:24;30.00;26.25;17.00
72031;PMS5003;49185;42.320;23.198;2022-12-18T10:46:01;27.00;26.00;16.00
72031;PMS5003;49185;42.320;23.198;2022-12-18T10:48:53;33.25;28.25;17.00
72031;PMS5003;49185;42.320;23.198;2022-12-18T10:53:59;26.25;23.00;15.50
72031;PMS5003;49185;42.320;23.198;2022-12-18T10:56:27;30.00;27.25;16.75
72031;PMS5003;49185;42.320;23.198;2022-12-18T10:58:56;29.00;26.00;16.00
72031;PMS5003;49185;42.320;23.198;2022-12-18T11:01:26;29.75;26.00;15.50
72031;PMS5003;49185;42.320;23.198;2022-12-18T11:06:20;32.00;28.75;17.00
72031;PMS5003;49185;42.320;23.198;2022-12-18T11:11:24;29.00;27.00;17.00
72031;PMS5003;49185;42.320;23.198;2022-12-18T11:16:45;27.00;24.00;16.00
72031;PMS5003;49185;42.320;23.198;2022-12-18T11:21:46;24.50;23.00;14.00
72031;PMS5003;49185;42.320;23.198;2022-12-18T11:24:18;24.33;21.00;14.00
72031;PMS5003;49185;42.320;23.198;2022-12-18T11:27:05;30.50;26.25;15.50
72031;PMS5003;49185;42.320;23.198;2022-12-18T11:29:40;33.50;27.00;17.00
72031;PMS5003;49185;42.320;23.198;2022-12-18T11:32:19;32.00;28.00;16.33
72031;PMS5003;49185;42.320;23.198;2022-12-18T11:35:03;27.25;24.00;15.00
72031;PMS5003;49185;42.320;23.198;2022-12-18T11:37:39;29.25;26.00;16.00
72031;PMS5003;49185;42.320;23.198;2022-12-18T11:40:18;37.25;29.00;17.75
72031;PMS5003;49185;42.320;23.198;2022-12-18T11:43:03;32.25;28.00;17.00
72031;PMS5003;49185;42.320;23.198;2022-12-18T11:45:35;31.75;27.00;16.50
72031;PMS5003;49185;42.320;23.198;2022-12-18T11:53:13;27.00;25.50;14.00
72031;PMS5003;49185;42.320;23.198;2022-12-18T12:00:47;31.50;27.75;16.00
72031;PMS5003;49185;42.320;23.198;2022-12-18T12:11:58;33.50;28.50;17.00
72031;PMS5003;49185;42.320;23.198;2022-12-18T12:17:49;32.75;29.25;17.25
72031;PMS5003;49185;42.320;23.198;2022-12-18T12:25:50;36.50;31.00;19.00
72031;PMS5003;49185;42.320;23.198;2022-12-18T12:28:31;40.00;32.00;19.00
72031;PMS5003;49185;42.320;23.198;2022-12-18T12:34:14;34.00;28.50;17.00
72031;PMS5003;49185;42.320;23.198;2022-12-18T12:36:54;36.00;29.50;17.50
72031;PMS5003;49185;42.320;23.198;2022-12-18T12:39:36;37.00;30.75;18.00
72031;PMS5003;49185;42.320;23.198;2022-12-18T12:42:05;35.50;29.00;17.00
72031;PMS5003;49185;42.320;23.198;2022-12-18T12:44:49;32.50;27.00;16.50
72031;PMS5003;49185;42.320;23.198;2022-12-18T12:47:23;30.00;26.50;16.00
72031;PMS5003;49185;42.320;23.198;2022-12-18T12:49:53;30.50;26.00;16.00
72031;PMS5003;49185;42.320;23.198;2022-12-18T12:52:37;34.75;29.25;17.50
72031;PMS5003;49185;42.320;23.198;2022-12-18T12:55:07;42.50;33.75;21.00
72031;PMS5003;49185;42.320;23.198;2022-12-18T13:00:30;42.00;34.00;20.00
72031;PMS5003;49185;42.320;23.198;2022-12-18T13:05:59;51.25;40.00;23.75
72031;PMS5003;49185;42.320;23.198;2022-12-18T13:08:30;43.00;35.00;20.50
72031;PMS5003;49185;42.320;23.198;2022-12-18T13:10:58;40.50;33.00;19.50
72031;PMS5003;49185;42.320;23.198;2022-12-18T13:13:24;42.00;34.00;20.00
72031;PMS5003;49185;42.320;23.198;2022-12-18T13:16:06;42.33;34.00;22.00
72031;PMS5003;49185;42.320;23.198;2022-12-18T13:18:33;43.00;34.25;22.00
72031;PMS5003;49185;42.320;23.198;2022-12-18T13:30:59;48.33;37.67;22.67
72031;PMS5003;49185;42.320;23.198;2022-12-18T13:35:52;54.33;42.00;26.00
72031;PMS5003;49185;42.320;23.198;2022-12-18T13:38:35;48.00;38.00;23.00
72031;PMS5003;49185;42.320;23.198;2022-12-18T13:41:10;42.25;34.50;21.00
72031;PMS5003;49185;42.320;23.198;2022-12-18T13:43:52;45.00;35.00;22.00
72031;PMS5003;49185;42.320;23.198;2022-12-18T13:46:26;43.50;34.00;21.00
72031;PMS5003;49185;42.320;23.198;2022-12-18T13:49:00;42.00;34.00;20.00
72031;PMS5003;49185;42.320;23.198;2022-12-18T13:51:28;41.25;34.00;20.50
72031;PMS5003;49185;42.320;23.198;2022-12-18T13:56:44;24.00;24.00;16.00
72031;PMS5003;49185;42.320;23.198;2022-12-18T13:59:15;25.00;22.00;15.00
72031;PMS5003;49185;42.320;23.198;2022-12-18T14:01:49;26.00;24.25;14.50
72031;PMS5003;49185;42.320;23.198;2022-12-18T14:04:27;27.00;24.50;14.00
72031;PMS5003;49185;42.320;23.198;2022-12-18T14:07:03;27.25;23.25;13.00
72031;PMS5003;49185;42.320;23.198;2022-12-18T14:09:35;26.75;23.25;12.00
72031;PMS5003;49185;42.320;23.198;2022-12-18T14:12:05;26.00;24.50;12.50
72031;PMS5003;49185;42.320;23.198;2022-12-18T14:14:31;28.00;26.00;14.50
72031;PMS5003;49185;42.320;23.198;2022-12-18T14:16:57;28.00;24.00;14.00
72031;PMS5003;49185;42.320;23.198;2022-12-18T14:19:23;25.25;23.50;14.00
72031;PMS5003;49185;42.320;23.198;2022-12-18T14:21:49;26.67;25.00;14.33
72031;PMS5003;49185;42.320;23.198;2022-12-18T14:24:19;26.00;24.25;14.00
72031;PMS5003;49185;42.320;23.198;2022-12-18T14:26:47;34.25;29.50;16.00
72031;PMS5003;49185;42.320;23.198;2022-12-18T14:29:18;32.00;28.00;16.00
72031;PMS5003;49185;42.320;23.198;2022-12-18T14:34:40;32.50;29.00;16.75
72031;PMS5003;49185;42.320;23.198;2022-12-18T14:37:09;36.50;31.50;19.50
72031;PMS5003;49185;42.320;23.198;2022-12-18T14:39:35;39.00;33.00;21.00
72031;PMS5003;49185;42.320;23.198;2022-12-18T14:42:00;40.67;33.33;20.33
72031;PMS5003;49185;42.320;23.198;2022-12-18T14:44:26;40.67;33.33;21.67
72031;PMS5003;49185;42.320;23.198;2022-12-18T14:46:51;40.33;34.33;22.00
72031;PMS5003;49185;42.320;23.198;2022-12-18T14:49:29;40.50;33.50;21.00
72031;PMS5003;49185;42.320;23.198;2022-12-18T14:51:57;38.75;31.00;20.00
72031;PMS5003;49185;42.320;23.198;2022-12-18T14:54:25;34.00;28.00;18.00
72031;PMS5003;49185;42.320;23.198;2022-12-18T14:59:47;39.00;31.00;19.25
72031;PMS5003;49185;42.320;23.198;2022-12-18T15:04:53;33.00;27.50;16.00
72031;PMS5003;49185;42.320;23.198;2022-12-18T15:07:25;29.00;27.50;15.00
72031;PMS5003;49185;42.320;23.198;2022-12-18T15:12:45;42.75;34.50;20.75
72031;PMS5003;49185;42.320;23.198;2022-12-18T15:17:59;43.00;34.50;21.25
72031;PMS5003;49185;42.320;23.198;2022-12-18T15:20:25;46.00;38.25;23.75
72031;PMS5003;49185;42.320;23.198;2022-12-18T15:22:51;46.25;37.25;22.75
72031;PMS5003;49185;42.320;23.198;2022-12-18T15:25:35;43.50;35.50;22.00
72031;PMS5003;49185;42.320;23.198;2022-12-18T15:28:02;44.75;35.50;21.50
72031;PMS5003;49185;42.320;23.198;2022-12-18T15:30:30;51.25;40.75;24.50
72031;PMS5003;49185;42.320;23.198;2022-12-18T15:35:57;59.25;46.00;27.00
72031;PMS5003;49185;42.320;23.198;2022-12-18T15:38:23;48.00;38.25;24.00
72031;PMS5003;49185;42.320;23.198;2022-12-18T15:40:48;40.33;32.33;20.00
72031;PMS5003;49185;42.320;23.198;2022-12-18T15:43:14;37.00;30.00;19.00
72031;PMS5003;49185;42.320;23.198;2022-12-18T15:45:39;30.33;26.33;17.00
72031;PMS5003;49185;42.320;23.198;2022-12-18T15:48:39;28.33;25.00;15.00
72031;PMS5003;49185;42.320;23.198;2022-12-18T15:51:04;26.00;23.00;14.00
72031;PMS5003;49185;42.320;23.198;2022-12-18T15:53:34;30.00;25.00;15.00
72031;PMS5003;49185;42.320;23.198;2022-12-18T15:55:59;26.00;23.00;14.00
72031;PMS5003;49185;42.320;23.198;2022-12-18T15:58:25;25.33;23.33;14.00
72031;PMS5003;49185;42.320;23.198;2022-12-18T16:00:50;29.67;26.33;16.67
72031;PMS5003;49185;42.320;23.198;2022-12-18T16:03:16;26.00;25.00;17.00
72031;PMS5003;49185;42.320;23.198;2022-12-18T16:05:42;24.33;23.00;14.00
72031;PMS5003;49185;42.320;23.198;2022-12-18T16:08:07;24.67;22.33;12.00
72031;PMS5003;49185;42.320;23.198;2022-12-18T16:10:33;25.67;23.00;13.00
72031;PMS5003;49185;42.320;23.198;2022-12-18T16:12:59;31.25;26.75;15.00
72031;PMS5003;49185;42.320;23.198;2022-12-18T16:15:25;32.00;27.00;15.00
72031;PMS5003;49185;42.320;23.198;2022-12-18T16:17:50;31.33;26.67;16.33
72031;PMS5003;49185;42.320;23.198;2022-12-18T16:20:17;28.67;25.00;16.00
72031;PMS5003;49185;42.320;23.198;2022-12-18T16:22:45;27.25;25.00;15.00
72031;PMS5003;49185;42.320;23.198;2022-12-18T16:25:29;28.50;25.00;14.00
72031;PMS5003;49185;42.320;23.198;2022-12-18T16:27:55;27.50;23.50;14.00
72031;PMS5003;49185;42.320;23.198;2022-12-18T16:30:22;28.25;24.00;13.75
72031;PMS5003;49185;42.320;23.198;2022-12-18T16:32:50;28.50;25.00;16.00
72031;PMS5003;49185;42.320;23.198;2022-12-18T16:35:16;27.33;24.67;15.00
72031;PMS5003;49185;42.320;23.198;2022-12-18T16:37:42;24.00;22.75;14.00
72031;PMS5003;49185;42.320;23.198;2022-12-18T16:40:09;24.75;22.50;12.00
72031;PMS5003;49185;42.320;23.198;2022-12-18T16:42:37;26.00;24.00;12.00
72031;PMS5003;49185;42.320;23.198;2022-12-18T16:45:04;24.00;23.50;11.50
72031;PMS5003;49185;42.320;23.198;2022-12-18T16:47:30;21.00;20.00;9.75
72031;PMS5003;49185;42.320;23.198;2022-12-18T16:49:56;25.50;21.00;10.00
72031;PMS5003;49185;42.320;23.198;2022-12-18T16:52:22;23.33;19.33;10.00
72031;PMS5003;49185;42.320;23.198;2022-12-18T16:54:47;22.00;20.00;8.00
72031;PMS5003;49185;42.320;23.198;2022-12-18T16:57:13;21.67;20.00;7.00
72031;PMS5003;49185;42.320;23.198;2022-12-18T16:59:41;22.00;21.00;8.00
72031;PMS5003;49185;42.320;23.198;2022-12-18T17:02:14;21.00;19.25;8.00
72031;PMS5003;49185;42.320;23.198;2022-12-18T17:04:42;22.50;20.00;7.00
72031;PMS5003;49185;42.320;23.198;2022-12-18T17:07:08;21.50;18.00;7.50
72031;PMS5003;49185;42.320;23.198;2022-12-18T17:09:34;21.50;20.50;9.00
72031;PMS5003;49185;42.320;23.198;2022-12-18T17:12:00;22.00;21.00;8.00
72031;PMS5003;49185;42.320;23.198;2022-12-18T17:14:25;22.00;19.00;7.00
72031;PMS5003;49185;42.320;23.198;2022-12-18T17:16:52;21.67;20.00;8.33
72031;PMS5003;49185;42.320;23.198;2022-12-18T17:19:18;21.50;19.50;10.25
72031;PMS5003;49185;42.320;23.198;2022-12-18T17:21:44;24.00;23.00;11.00
72031;PMS5003;49185;42.320;23.198;2022-12-18T17:24:13;24.50;22.50;11.00
72031;PMS5003;49185;42.320;23.198;2022-12-18T17:26:38;26.00;24.00;13.00
72031;PMS5003;49185;42.320;23.198;2022-12-18T17:29:04;38.67;30.33;19.33
72031;PMS5003;49185;42.320;23.198;2022-12-18T17:31:30;46.50;36.50;23.00
72031;PMS5003;49185;42.320;23.198;2022-12-18T17:33:56;45.50;37.00;23.75
72031;PMS5003;49185;42.320;23.198;2022-12-18T17:36:22;43.00;34.75;22.00
72031;PMS5003;49185;42.320;23.198;2022-12-18T17:38:53;40.00;33.75;21.00
72031;PMS5003;49185;42.320;23.198;2022-12-18T17:41:20;40.00;32.25;20.00
72031;PMS5003;49185;42.320;23.198;2022-12-18T17:43:53;39.00;31.25;19.00
72031;PMS5003;49185;42.320;23.198;2022-12-18T17:46:20;36.50;31.00;19.00
72031;PMS5003;49185;42.320;23.198;2022-12-18T17:48:46;35.50;30.00;17.25
72031;PMS5003;49185;42.320;23.198;2022-12-18T17:51:12;35.00;29.50;18.00
72031;PMS5003;49185;42.320;23.198;2022-12-18T17:53:39;36.50;30.00;19.00
72031;PMS5003;49185;42.320;23.198;2022-12-18T17:56:05;41.50;33.25;21.25
72031;PMS5003;49185;42.320;23.198;2022-12-18T17:58:32;41.00;32.50;21.50
72031;PMS5003;49185;42.320;23.198;2022-12-18T18:00:59;40.00;32.50;21.50
72031;PMS5003;49185;42.320;23.198;2022-12-18T18:03:26;41.25;32.50;20.25
72031;PMS5003;49185;42.320;23.198;2022-12-18T18:05:55;47.50;37.25;22.75
72031;PMS5003;49185;42.320;23.198;2022-12-18T18:08:22;47.00;37.00;23.00
72031;PMS5003;49185;42.320;23.198;2022-12-18T18:10:50;49.50;39.25;23.50
72031;PMS5003;49185;42.320;23.198;2022-12-18T18:13:22;54.00;42.75;26.25
72031;PMS5003;49185;42.320;23.198;2022-12-18T18:15:56;62.00;52.75;29.50
72031;PMS5003;49185;42.320;23.198;2022-12-18T18:18:22;62.50;51.50;29.00
72031;PMS5003;49185;42.320;23.198;2022-12-18T18:20:48;60.00;48.00;28.00
72031;PMS5003;49185;42.320;23.198;2022-12-18T18:23:13;57.33;44.33;27.00
72031;PMS5003;49185;42.320;23.198;2022-12-18T18:25:39;54.33;42.00;25.33
72031;PMS5003;49185;42.320;23.198;2022-12-18T18:28:04;49.33;38.33;23.00
72031;PMS5003;49185;42.320;23.198;2022-12-18T18:30:30;51.33;40.00;25.00
72031;PMS5003;49185;42.320;23.198;2022-12-18T18:32:56;51.00;40.00;24.00
72031;PMS5003;49185;42.320;23.198;2022-12-18T18:38:17;49.25;39.75;24.00
72031;PMS5003;49185;42.320;23.198;2022-12-18T18:40:43;49.33;38.33;24.00
72031;PMS5003;49185;42.320;23.198;2022-12-18T18:43:08;50.00;39.00;24.00
72031;PMS5003;49185;42.320;23.198;2022-12-18T18:45:35;51.50;40.00;25.00
72031;PMS5003;49185;42.320;23.198;2022-12-18T18:48:00;51.33;40.33;25.00
72031;PMS5003;49185;42.320;23.198;2022-12-18T18:50:25;52.00;41.67;26.00
72031;PMS5003;49185;42.320;23.198;2022-12-18T18:52:51;54.33;43.33;27.33
72031;PMS5003;49185;42.320;23.198;2022-12-18T18:55:16;54.00;44.00;27.33
72031;PMS5003;49185;42.320;23.198;2022-12-18T18:57:42;55.33;43.33;28.33
72031;PMS5003;49185;42.320;23.198;2022-12-18T19:00:07;53.00;42.00;27.33
72031;PMS5003;49185;42.320;23.198;2022-12-18T19:02:34;52.50;41.50;26.00
72031;PMS5003;49185;42.320;23.198;2022-12-18T19:05:00;49.00;39.50;24.75
72031;PMS5003;49185;42.320;23.198;2022-12-18T19:07:25;42.00;35.00;21.33
72031;PMS5003;49185;42.320;23.198;2022-12-18T19:13:13;33.00;27.50;18.00
72031;PMS5003;49185;42.320;23.198;2022-12-18T19:15:38;33.00;27.33;16.33
72031;PMS5003;49185;42.320;23.198;2022-12-18T19:18:04;31.00;27.33;17.00
72031;PMS5003;49185;42.320;23.198;2022-12-18T19:20:29;32.00;28.00;16.33
72031;PMS5003;49185;42.320;23.198;2022-12-18T19:22:55;29.67;27.00;16.33
72031;PMS5003;49185;42.320;23.198;2022-12-18T19:25:21;30.00;25.00;16.00
72031;PMS5003;49185;42.320;23.198;2022-12-18T19:27:47;29.50;25.00;16.00
72031;PMS5003;49185;42.320;23.198;2022-12-18T19:30:13;29.00;26.00;16.00
72031;PMS5003;49185;42.320;23.198;2022-12-18T19:32:38;27.33;25.00;15.00
72031;PMS5003;49185;42.320;23.198;2022-12-18T19:35:04;30.00;27.67;17.00
72031;PMS5003;49185;42.320;23.198;2022-12-18T19:37:29;34.00;27.25;16.00
72031;PMS5003;49185;42.320;23.198;2022-12-18T19:39:55;33.67;26.33;16.00
72031;PMS5003;49185;42.320;23.198;2022-12-18T19:42:20;40.33;32.33;20.00
72031;PMS5003;49185;42.320;23.198;2022-12-18T19:44:46;40.67;33.33;21.33
72031;PMS5003;49185;42.320;23.198;2022-12-18T19:47:12;42.33;34.33;21.33
72031;PMS5003;49185;42.320;23.198;2022-12-18T19:49:37;40.00;32.67;20.00
72031;PMS5003;49185;42.320;23.198;2022-12-18T19:52:03;38.33;30.00;19.00
72031;PMS5003;49185;42.320;23.198;2022-12-18T19:54:28;38.33;30.00;19.00
72031;PMS5003;49185;42.320;23.198;2022-12-18T19:56:54;35.00;27.33;18.00
72031;PMS5003;49185;42.320;23.198;2022-12-18T19:59:19;29.00;27.00;16.00
72031;PMS5003;49185;42.320;23.198;2022-12-18T20:01:45;26.33;24.67;14.00
72031;PMS5003;49185;42.320;23.198;2022-12-18T20:04:10;26.00;23.00;13.00
72031;PMS5003;49185;42.320;23.198;2022-12-18T20:06:46;22.00;21.00;13.00
72031;PMS5003;49185;42.320;23.198;2022-12-18T20:09:13;21.50;21.00;11.00
72031;PMS5003;49185;42.320;23.198;2022-12-18T20:11:39;23.50;21.00;9.00
72031;PMS5003;49185;42.320;23.198;2022-12-18T20:14:04;24.00;20.00;10.00
72031;PMS5003;49185;42.320;23.198;2022-12-18T20:16:30;20.33;18.00;10.00
72031;PMS5003;49185;42.320;23.198;2022-12-18T20:18:55;19.33;17.67;8.00
72031;PMS5003;49185;42.320;23.198;2022-12-18T20:21:21;20.00;17.00;7.00
72031;PMS5003;49185;42.320;23.198;2022-12-18T20:23:47;20.00;18.00;6.50
72031;PMS5003;49185;42.320;23.198;2022-12-18T20:26:12;21.33;16.33;7.00
72031;PMS5003;49185;42.320;23.198;2022-12-18T20:28:38;21.00;17.33;7.00
72031;PMS5003;49185;42.320;23.198;2022-12-18T20:31:04;17.00;15.33;6.00
72031;PMS5003;49185;42.320;23.198;2022-12-18T20:33:31;18.50;16.50;7.00
72031;PMS5003;49185;42.320;23.198;2022-12-18T20:36:01;17.00;16.00;6.75
72031;PMS5003;49185;42.320;23.198;2022-12-18T20:38:31;16.75;16.75;6.25
72031;PMS5003;49185;42.320;23.198;2022-12-18T20:40:58;18.25;16.00;5.00
72031;PMS5003;49185;42.320;23.198;2022-12-18T20:43:24;17.25;15.50;6.00
72031;PMS5003;49185;42.320;23.198;2022-12-18T20:45:49;19.33;17.67;7.00
72031;PMS5003;49185;42.320;23.198;2022-12-18T20:48:15;20.00;17.00;7.67
72031;PMS5003;49185;42.320;23.198;2022-12-18T20:50:40;17.00;15.00;6.00
72031;PMS5003;49185;42.320;23.198;2022-12-18T20:53:06;15.67;14.00;6.00
72031;PMS5003;49185;42.320;23.198;2022-12-18T20:55:31;17.33;16.00;4.67
72031;PMS5003;49185;42.320;23.198;2022-12-18T20:57:57;19.00;17.00;5.33
72031;PMS5003;49185;42.320;23.198;2022-12-18T21:00:22;19.00;17.00;6.00
72031;PMS5003;49185;42.320;23.198;2022-12-18T21:02:47;17.00;15.67;5.00
72031;PMS5003;49185;42.320;23.198;2022-12-18T21:05:13;16.33;16.00;6.00
72031;PMS5003;49185;42.320;23.198;2022-12-18T21:07:38;21.00;16.33;8.00
72031;PMS5003;49185;42.320;23.198;2022-12-18T21:10:04;23.00;19.00;8.00
72031;PMS5003;49185;42.320;23.198;2022-12-18T21:12:30;19.00;18.25;8.00
72031;PMS5003;49185;42.320;23.198;2022-12-18T21:14:56;19.33;18.33;8.33
72031;PMS5003;49185;42.320;23.198;2022-12-18T21:17:22;23.00;19.00;9.00
72031;PMS5003;49185;42.320;23.198;2022-12-18T21:19:47;22.00;18.33;7.00
72031;PMS5003;49185;42.320;23.198;2022-12-18T21:22:12;21.00;18.33;7.00
72031;PMS5003;49185;42.320;23.198;2022-12-18T21:24:38;18.33;18.00;9.00
72031;PMS5003;49185;42.320;23.198;2022-12-18T21:27:03;19.67;18.00;6.00
72031;PMS5003;49185;42.320;23.198;2022-12-18T21:29:29;18.33;16.00;6.00
72031;PMS5003;49185;42.320;23.198;2022-12-18T21:31:54;17.00;16.33;6.00
72031;PMS5003;49185;42.320;23.198;2022-12-18T21:34:23;18.33;16.00;7.00
72031;PMS5003;49185;42.320;23.198;2022-12-18T21:36:51;20.00;19.00;6.75
72031;PMS5003;49185;42.320;23.198;2022-12-18T21:39:18;21.50;19.75;7.00
72031;PMS5003;49185;42.320;23.198;2022-12-18T21:41:43;21.50;18.75;7.00
72031;PMS5003;49185;42.320;23.198;2022-12-18T21:44:10;21.00;18.00;7.25
72031;PMS5003;49185;42.320;23.198;2022-12-18T21:46:41;20.75;17.50;6.00
72031;PMS5003;49185;42.320;23.198;2022-12-18T21:49:09;21.25;19.00;7.25
72031;PMS5003;49185;42.320;23.198;2022-12-18T21:51:35;22.75;17.50;7.25
72031;PMS5003;49185;42.320;23.198;2022-12-18T21:54:01;21.50;17.50;8.00
72031;PMS5003;49185;42.320;23.198;2022-12-18T21:59:22;19.75;18.25;8.00
72031;PMS5003;49185;42.320;23.198;2022-12-18T22:01:49;19.00;18.00;7.00
72031;PMS5003;49185;42.320;23.198;2022-12-18T22:04:16;18.25;18.00;7.75
72031;PMS5003;49185;42.320;23.198;2022-12-18T22:06:43;16.75;16.50;6.50
72031;PMS5003;49185;42.320;23.198;2022-12-18T22:09:10;17.75;16.00;6.25
72031;PMS5003;49185;42.320;23.198;2022-12-18T22:11:37;19.25;16.75;7.50
72031;PMS5003;49185;42.320;23.198;2022-12-18T22:14:03;20.50;19.00;9.00
72031;PMS5003;49185;42.320;23.198;2022-12-18T22:16:29;21.00;19.00;7.33
72031;PMS5003;49185;42.320;23.198;2022-12-18T22:18:54;21.33;19.33;7.33
72031;PMS5003;49185;42.320;23.198;2022-12-18T22:21:24;23.00;19.67;7.33
72031;PMS5003;49185;42.320;23.198;2022-12-18T22:23:55;23.00;21.00;8.00
72031;PMS5003;49185;42.320;23.198;2022-12-18T22:26:23;23.00;18.50;9.00
72031;PMS5003;49185;42.320;23.198;2022-12-18T22:28:50;24.00;19.00;9.00
72031;PMS5003;49185;42.320;23.198;2022-12-18T22:31:15;22.25;18.00;7.00
72031;PMS5003;49185;42.320;23.198;2022-12-18T22:33:41;18.33;18.00;7.00
72031;PMS5003;49185;42.320;23.198;2022-12-18T22:36:06;18.00;17.00;7.00
72031;PMS5003;49185;42.320;23.198;2022-12-18T22:38:32;20.00;19.00;7.00
72031;PMS5003;49185;42.320;23.198;2022-12-18T22:40:58;21.00;19.00;7.50
72031;PMS5003;49185;42.320;23.198;2022-12-18T22:43:23;21.00;19.00;7.00
72031;PMS5003;49185;42.320;23.198;2022-12-18T22:45:48;20.00;18.00;7.00
72031;PMS5003;49185;42.320;23.198;2022-12-18T22:48:14;23.00;18.33;7.67
72031;PMS5003;49185;42.320;23.198;2022-12-18T22:50:39;23.00;20.00;9.00
72031;PMS5003;49185;42.320;23.198;2022-12-18T22:53:05;26.50;22.00;11.00
72031;PMS5003;49185;42.320;23.198;2022-12-18T22:55:30;23.00;21.00;11.00
72031;PMS5003;49185;42.320;23.198;2022-12-18T22:57:56;23.67;22.33;11.00
72031;PMS5003;49185;42.320;23.198;2022-12-18T23:00:21;26.33;21.00;11.00
72031;PMS5003;49185;42.320;23.198;2022-12-18T23:02:47;29.33;22.33;11.00
72031;PMS5003;49185;42.320;23.198;2022-12-18T23:05:12;26.00;22.00;11.33
72031;PMS5003;49185;42.320;23.198;2022-12-18T23:07:37;22.33;19.33;10.00
72031;PMS5003;49185;42.320;23.198;2022-12-18T23:10:03;21.33;19.00;7.00
72031;PMS5003;49185;42.320;23.198;2022-12-18T23:12:29;22.00;18.75;7.00
72031;PMS5003;49185;42.320;23.198;2022-12-18T23:14:54;22.00;20.00;7.00
72031;PMS5003;49185;42.320;23.198;2022-12-18T23:17:20;22.00;18.00;7.00
72031;PMS5003;49185;42.320;23.198;2022-12-18T23:19:45;22.00;18.00;8.00
72031;PMS5003;49185;42.320;23.198;2022-12-18T23:22:10;22.00;18.00;7.00
72031;PMS5003;49185;42.320;23.198;2022-12-18T23:24:36;22.00;18.00;8.00
72031;PMS5003;49185;42.320;23.198;2022-12-18T23:27:01;19.00;18.33;8.00
72031;PMS5003;49185;42.320;23.198;2022-12-18T23:29:27;21.00;20.00;7.00
72031;PMS5003;49185;42.320;23.198;2022-12-18T23:31:52;22.67;19.67;8.33
72031;PMS5003;49185;42.320;23.198;2022-12-18T23:34:18;24.00;22.00;10.00
72031;PMS5003;49185;42.320;23.198;2022-12-18T23:36:43;22.00;21.00;8.00
72031;PMS5003;49185;42.320;23.198;2022-12-18T23:39:09;21.00;18.00;7.00
72031;PMS5003;49185;42.320;23.198;2022-12-18T23:41:35;18.50;17.75;7.00
72031;PMS5003;49185;42.320;23.198;2022-12-18T23:44:01;20.00;18.33;7.00
72031;PMS5003;49185;42.320;23.198;2022-12-18T23:46:30;18.33;17.00;7.00
72031;PMS5003;49185;42.320;23.198;2022-12-18T23:49:00;19.50;17.25;6.00
72031;PMS5003;49185;42.320;23.198;2022-12-18T23:51:27;19.00;17.00;7.00
72031;PMS5003;49185;42.320;23.198;2022-12-18T23:53:54;17.00;17.00;6.00
72031;PMS5003;49185;42.320;23.198;2022-12-18T23:56:22;16.00;16.00;5.00
72031;PMS5003;49185;42.320;23.198;2022-12-18T23:58:49;16.25;15.50;6.00
